sensor_id;sensor_type;location;lat;lon;timestamp;pressure;altitude;pressure_sealevel;temperature;humidity
9905;BME280;4991;43.566;27.820;2023-06-26T00:01:17;98408.50;;;18.77;100.00
9905;BME280;4991;43.566;27.820;2023-06-26T00:03:47;98408.78;;;18.72;100.00
9905;BME280;4991;43.566;27.820;2023-06-26T00:06:13;98411.16;;;18.70;100.00
9905;BME280;4991;43.566;27.820;2023-06-26T00:08:39;98408.44;;;18.74;100.00
9905;BME280;4991;43.566;27.820;2023-06-26T00:11:05;98402.91;;;18.74;100.00
9905;BME280;4991;43.566;27.820;2023-06-26T00:13:31;98406.53;;;18.78;100.00
9905;BME280;4991;43.566;27.820;2023-06-26T00:15:57;98408.56;;;18.81;100.00
9905;BME280;4991;43.566;27.820;2023-06-26T00:18:22;98403.53;;;18.86;100.00
9905;BME280;4991;43.566;27.820;2023-06-26T00:20:49;98404.28;;;18.83;100.00
9905;BME280;4991;43.566;27.820;2023-06-26T00:23:16;98405.56;;;18.89;100.00
9905;BME280;4991;43.566;27.820;2023-06-26T00:25:43;98404.38;;;18.90;100.00
9905;BME280;4991;43.566;27.820;2023-06-26T00:28:09;98412.56;;;18.83;100.00
9905;BME280;4991;43.566;27.820;2023-06-26T00:30:35;98403.47;;;18.83;100.00
9905;BME280;4991;43.566;27.820;2023-06-26T00:33:00;98408.63;;;18.84;100.00
9905;BME280;4991;43.566;27.820;2023-06-26T00:35:26;98412.97;;;18.85;100.00
9905;BME280;4991;43.566;27.820;2023-06-26T00:37:52;98407.53;;;18.89;100.00
9905;BME280;4991;43.566;27.820;2023-06-26T00:40:17;98414.75;;;18.97;100.00
9905;BME280;4991;43.566;27.820;2023-06-26T00:42:43;98414.75;;;18.97;100.00
9905;BME280;4991;43.566;27.820;2023-06-26T00:45:09;98408.91;;;18.98;100.00
9905;BME280;4991;43.566;27.820;2023-06-26T00:47:35;98411.81;;;19.09;100.00
9905;BME280;4991;43.566;27.820;2023-06-26T00:50:01;98409.00;;;19.05;100.00
9905;BME280;4991;43.566;27.820;2023-06-26T00:52:27;98405.19;;;19.13;100.00
9905;BME280;4991;43.566;27.820;2023-06-26T00:54:52;98405.56;;;19.12;100.00
9905;BME280;4991;43.566;27.820;2023-06-26T00:57:18;98408.00;;;19.17;100.00
9905;BME280;4991;43.566;27.820;2023-06-26T00:59:44;98402.53;;;19.20;100.00
9905;BME280;4991;43.566;27.820;2023-06-26T01:02:09;98401.41;;;19.21;100.00
9905;BME280;4991;43.566;27.820;2023-06-26T01:04:35;98394.69;;;19.22;100.00
9905;BME280;4991;43.566;27.820;2023-06-26T01:07:02;98391.94;;;19.22;100.00
9905;BME280;4991;43.566;27.820;2023-06-26T01:09:28;98395.88;;;19.21;100.00
9905;BME280;4991;43.566;27.820;2023-06-26T01:11:55;98395.28;;;19.32;100.00
9905;BME280;4991;43.566;27.820;2023-06-26T01:14:20;98391.34;;;19.33;100.00
9905;BME280;4991;43.566;27.820;2023-06-26T01:16:47;98385.50;;;19.38;100.00
9905;BME280;4991;43.566;27.820;2023-06-26T01:19:24;98388.69;;;19.40;100.00
9905;BME280;4991;43.566;27.820;2023-06-26T01:25:03;98378.06;;;19.42;100.00
9905;BME280;4991;43.566;27.820;2023-06-26T01:27:34;98384.81;;;19.44;100.00
9905;BME280;4991;43.566;27.820;2023-06-26T01:30:02;98383.63;;;19.45;100.00
9905;BME280;4991;43.566;27.820;2023-06-26T01:32:30;98384.44;;;19.46;100.00
9905;BME280;4991;43.566;27.820;2023-06-26T01:34:57;98380.09;;;19.45;100.00
9905;BME280;4991;43.566;27.820;2023-06-26T01:37:22;98384.88;;;19.48;100.00
9905;BME280;4991;43.566;27.820;2023-06-26T01:39:48;98392.03;;;19.52;100.00
9905;BME280;4991;43.566;27.820;2023-06-26T01:42:14;98387.75;;;19.55;100.00
9905;BME280;4991;43.566;27.820;2023-06-26T01:44:44;98385.75;;;19.55;100.00
9905;BME280;4991;43.566;27.820;2023-06-26T01:47:12;98386.56;;;19.56;100.00
9905;BME280;4991;43.566;27.820;2023-06-26T01:50:02;98380.16;;;19.52;100.00
9905;BME280;4991;43.566;27.820;2023-06-26T01:52:53;98388.13;;;19.57;100.00
9905;BME280;4991;43.566;27.820;2023-06-26T01:58:02;98389.38;;;19.59;100.00
9905;BME280;4991;43.566;27.820;2023-06-26T02:00:28;98383.03;;;19.59;100.00
9905;BME280;4991;43.566;27.820;2023-06-26T02:02:54;98392.13;;;19.59;100.00
9905;BME280;4991;43.566;27.820;2023-06-26T02:05:20;98394.16;;;19.62;100.00
9905;BME280;4991;43.566;27.820;2023-06-26T02:07:46;98385.81;;;19.59;100.00
9905;BME280;4991;43.566;27.820;2023-06-26T02:10:12;98395.72;;;19.60;100.00
9905;BME280;4991;43.566;27.820;2023-06-26T02:12:38;98385.81;;;19.59;100.00
9905;BME280;4991;43.566;27.820;2023-06-26T02:15:04;98385.50;;;19.64;100.00
9905;BME280;4991;43.566;27.820;2023-06-26T02:17:30;98380.34;;;19.62;100.00
9905;BME280;4991;43.566;27.820;2023-06-26T02:19:56;98397.34;;;19.64;100.00
9905;BME280;4991;43.566;27.820;2023-06-26T02:22:21;98384.34;;;19.65;100.00
9905;BME280;4991;43.566;27.820;2023-06-26T02:24:47;98378.31;;;19.59;100.00
9905;BME280;4991;43.566;27.820;2023-06-26T02:27:13;98380.78;;;19.64;100.00
9905;BME280;4991;43.566;27.820;2023-06-26T02:29:40;98386.28;;;19.64;100.00
9905;BME280;4991;43.566;27.820;2023-06-26T02:32:06;98372.84;;;19.63;100.00
9905;BME280;4991;43.566;27.820;2023-06-26T02:34:31;98374.44;;;19.64;100.00
9905;BME280;4991;43.566;27.820;2023-06-26T02:36:57;98376.06;;;19.68;100.00
9905;BME280;4991;43.566;27.820;2023-06-26T02:39:23;98382.03;;;19.70;100.00
9905;BME280;4991;43.566;27.820;2023-06-26T02:41:49;98384.41;;;19.72;100.00
9905;BME280;4991;43.566;27.820;2023-06-26T02:44:15;98380.41;;;19.66;100.00
9905;BME280;4991;43.566;27.820;2023-06-26T02:46:40;98391.44;;;19.66;100.00
9905;BME280;4991;43.566;27.820;2023-06-26T02:49:06;98379.53;;;19.62;100.00
9905;BME280;4991;43.566;27.820;2023-06-26T02:51:33;98381.94;;;19.63;100.00
9905;BME280;4991;43.566;27.820;2023-06-26T02:53:59;98378.75;;;19.61;100.00
9905;BME280;4991;43.566;27.820;2023-06-26T02:56:24;98379.84;;;19.57;100.00
9905;BME280;4991;43.566;27.820;2023-06-26T02:58:54;98374.31;;;19.53;100.00
9905;BME280;4991;43.566;27.820;2023-06-26T03:01:20;98385.34;;;19.53;100.00
9905;BME280;4991;43.566;27.820;2023-06-26T03:03:46;98386.88;;;19.51;100.00
9905;BME280;4991;43.566;27.820;2023-06-26T03:06:12;98380.53;;;19.50;100.00
9905;BME280;4991;43.566;27.820;2023-06-26T03:08:39;98387.25;;;19.49;100.00
9905;BME280;4991;43.566;27.820;2023-06-26T03:11:05;98388.06;;;19.50;100.00
9905;BME280;4991;43.566;27.820;2023-06-26T03:13:32;98386.69;;;19.37;100.00
9905;BME280;4991;43.566;27.820;2023-06-26T03:15:58;98392.13;;;19.33;100.00
9905;BME280;4991;43.566;27.820;2023-06-26T03:18:23;98392.09;;;19.30;100.00
9905;BME280;4991;43.566;27.820;2023-06-26T03:20:49;98397.47;;;19.22;100.00
9905;BME280;4991;43.566;27.820;2023-06-26T03:23:15;98395.81;;;19.18;100.00
9905;BME280;4991;43.566;27.820;2023-06-26T03:25:40;98396.91;;;19.13;100.00
9905;BME280;4991;43.566;27.820;2023-06-26T03:28:06;98396.19;;;19.16;100.00
9905;BME280;4991;43.566;27.820;2023-06-26T03:30:32;98388.75;;;19.20;100.00
9905;BME280;4991;43.566;27.820;2023-06-26T03:32:57;98399.00;;;19.20;100.00
9905;BME280;4991;43.566;27.820;2023-06-26T03:35:23;98399.78;;;19.20;100.00
9905;BME280;4991;43.566;27.820;2023-06-26T03:37:49;98395.00;;;19.17;100.00
9905;BME280;4991;43.566;27.820;2023-06-26T03:40:15;98384.09;;;19.24;100.00
9905;BME280;4991;43.566;27.820;2023-06-26T03:42:43;98393.56;;;19.27;100.00
9905;BME280;4991;43.566;27.820;2023-06-26T03:45:08;98392.50;;;19.32;100.00
9905;BME280;4991;43.566;27.820;2023-06-26T03:47:34;98396.06;;;19.32;100.00
9905;BME280;4991;43.566;27.820;2023-06-26T03:49:59;98395.81;;;19.18;100.00
9905;BME280;4991;43.566;27.820;2023-06-26T03:52:25;98395.31;;;19.12;100.00
9905;BME280;4991;43.566;27.820;2023-06-26T03:54:50;98396.81;;;19.06;100.00
9905;BME280;4991;43.566;27.820;2023-06-26T03:57:16;98396.38;;;19.04;100.00
9905;BME280;4991;43.566;27.820;2023-06-26T03:59:42;98394.03;;;19.06;100.00
9905;BME280;4991;43.566;27.820;2023-06-26T04:02:07;98393.97;;;19.03;100.00
9905;BME280;4991;43.566;27.820;2023-06-26T04:04:33;98394.41;;;19.05;100.00
9905;BME280;4991;43.566;27.820;2023-06-26T04:06:59;98389.13;;;18.96;100.00
9905;BME280;4991;43.566;27.820;2023-06-26T04:09:25;98390.97;;;18.89;100.00
9905;BME280;4991;43.566;27.820;2023-06-26T04:11:51;98398.50;;;18.92;100.00
9905;BME280;4991;43.566;27.820;2023-06-26T04:14:17;98408.63;;;18.84;100.00
9905;BME280;4991;43.566;27.820;2023-06-26T04:16:43;98402.59;;;18.79;100.00
9905;BME280;4991;43.566;27.820;2023-06-26T04:19:09;98396.41;;;18.85;100.00
9905;BME280;4991;43.566;27.820;2023-06-26T04:21:35;98397.47;;;18.77;100.00
9905;BME280;4991;43.566;27.820;2023-06-26T04:24:01;98400.28;;;18.81;100.00
9905;BME280;4991;43.566;27.820;2023-06-26T04:26:27;98399.84;;;18.79;100.00
9905;BME280;4991;43.566;27.820;2023-06-26T04:28:54;98402.88;;;18.70;100.00
9905;BME280;4991;43.566;27.820;2023-06-26T04:31:19;98399.97;;;18.63;100.00
9905;BME280;4991;43.566;27.820;2023-06-26T04:33:45;98400.88;;;18.71;100.00
9905;BME280;4991;43.566;27.820;2023-06-26T04:36:18;98395.00;;;18.72;100.00
9905;BME280;4991;43.566;27.820;2023-06-26T04:38:44;98398.63;;;18.76;100.00
9905;BME280;4991;43.566;27.820;2023-06-26T04:41:10;98403.72;;;18.74;100.00
9905;BME280;4991;43.566;27.820;2023-06-26T04:43:35;98396.97;;;18.72;100.00
9905;BME280;4991;43.566;27.820;2023-06-26T04:46:02;98403.94;;;18.66;100.00
9905;BME280;4991;43.566;27.820;2023-06-26T04:48:28;98402.72;;;18.63;100.00
9905;BME280;4991;43.566;27.820;2023-06-26T04:50:55;98402.28;;;18.61;100.00
9905;BME280;4991;43.566;27.820;2023-06-26T04:53:22;98403.75;;;18.55;100.00
9905;BME280;4991;43.566;27.820;2023-06-26T04:55:49;98408.19;;;18.60;100.00
9905;BME280;4991;43.566;27.820;2023-06-26T04:58:15;98408.97;;;18.60;100.00
9905;BME280;4991;43.566;27.820;2023-06-26T05:00:41;98404.75;;;18.66;100.00
9905;BME280;4991;43.566;27.820;2023-06-26T05:03:12;98411.47;;;18.69;100.00
9905;BME280;4991;43.566;27.820;2023-06-26T05:05:39;98407.94;;;18.68;100.00
9905;BME280;4991;43.566;27.820;2023-06-26T05:08:15;98403.28;;;18.72;100.00
9905;BME280;4991;43.566;27.820;2023-06-26T05:10:41;98406.59;;;18.81;100.00
9905;BME280;4991;43.566;27.820;2023-06-26T05:13:07;98407.41;;;18.82;100.00
9905;BME280;4991;43.566;27.820;2023-06-26T05:15:33;98415.06;;;18.92;100.00
9905;BME280;4991;43.566;27.820;2023-06-26T05:17:59;98417.94;;;18.99;100.00
9905;BME280;4991;43.566;27.820;2023-06-26T05:20:24;98418.06;;;19.06;100.00
9905;BME280;4991;43.566;27.820;2023-06-26T05:22:50;98416.56;;;19.08;100.00
9905;BME280;4991;43.566;27.820;2023-06-26T05:25:18;98421.44;;;19.18;100.00
9905;BME280;4991;43.566;27.820;2023-06-26T05:27:47;98421.75;;;19.13;100.00
9905;BME280;4991;43.566;27.820;2023-06-26T05:30:14;98420.03;;;19.05;100.00
9905;BME280;4991;43.566;27.820;2023-06-26T05:32:40;98417.91;;;19.18;100.00
9905;BME280;4991;43.566;27.820;2023-06-26T05:35:06;98421.41;;;19.15;100.00
9905;BME280;4991;43.566;27.820;2023-06-26T05:37:33;98424.03;;;19.08;100.00
9905;BME280;4991;43.566;27.820;2023-06-26T05:40:00;98419.25;;;19.05;100.00
9905;BME280;4991;43.566;27.820;2023-06-26T05:42:27;98423.97;;;19.04;100.00
9905;BME280;4991;43.566;27.820;2023-06-26T05:44:53;98426.47;;;19.13;100.00
9905;BME280;4991;43.566;27.820;2023-06-26T05:47:19;98424.25;;;19.22;100.00
9905;BME280;4991;43.566;27.820;2023-06-26T05:49:44;98422.59;;;19.40;100.00
9905;BME280;4991;43.566;27.820;2023-06-26T05:52:11;98430.94;;;19.44;100.00
9905;BME280;4991;43.566;27.820;2023-06-26T05:54:37;98418.13;;;19.32;100.00
9905;BME280;4991;43.566;27.820;2023-06-26T05:57:03;98418.63;;;19.38;100.00
9905;BME280;4991;43.566;27.820;2023-06-26T05:59:31;98419.44;;;19.38;100.00
9905;BME280;4991;43.566;27.820;2023-06-26T06:01:57;98436.47;;;19.44;100.00
9905;BME280;4991;43.566;27.820;2023-06-26T06:04:22;98421.66;;;19.55;100.00
9905;BME280;4991;43.566;27.820;2023-06-26T06:06:48;98427.69;;;19.61;100.00
9905;BME280;4991;43.566;27.820;2023-06-26T06:09:14;98428.16;;;19.66;100.00
9905;BME280;4991;43.566;27.820;2023-06-26T06:11:40;98428.44;;;19.58;100.00
9905;BME280;4991;43.566;27.820;2023-06-26T06:14:06;98426.47;;;19.58;100.00
9905;BME280;4991;43.566;27.820;2023-06-26T06:16:31;98418.75;;;19.71;100.00
9905;BME280;4991;43.566;27.820;2023-06-26T06:18:57;98433.28;;;19.94;100.00
9905;BME280;4991;43.566;27.820;2023-06-26T06:21:22;98428.19;;;19.96;100.00
9905;BME280;4991;43.566;27.820;2023-06-26T06:23:48;98431.75;;;19.96;100.00
9905;BME280;4991;43.566;27.820;2023-06-26T06:26:14;98432.44;;;20.16;100.00
9905;BME280;4991;43.566;27.820;2023-06-26T06:28:39;98430.59;;;20.27;100.00
9905;BME280;4991;43.566;27.820;2023-06-26T06:31:05;98436.13;;;20.27;100.00
9905;BME280;4991;43.566;27.820;2023-06-26T06:33:31;98433.50;;;20.37;100.00
9905;BME280;4991;43.566;27.820;2023-06-26T06:35:56;98429.19;;;20.40;100.00
9905;BME280;4991;43.566;27.820;2023-06-26T06:38:22;98429.03;;;20.59;100.00
9905;BME280;4991;43.566;27.820;2023-06-26T06:40:48;98426.50;;;20.47;100.00
9905;BME280;4991;43.566;27.820;2023-06-26T06:43:14;98426.84;;;20.42;100.00
9905;BME280;4991;43.566;27.820;2023-06-26T06:45:39;98430.91;;;20.51;100.00
9905;BME280;4991;43.566;27.820;2023-06-26T06:48:05;98417.91;;;20.56;100.00
9905;BME280;4991;43.566;27.820;2023-06-26T06:50:31;98414.91;;;20.71;100.00
9905;BME280;4991;43.566;27.820;2023-06-26T06:52:56;98414.09;;;21.04;100.00
9905;BME280;4991;43.566;27.820;2023-06-26T06:55:23;98411.06;;;21.19;100.00
9905;BME280;4991;43.566;27.820;2023-06-26T06:57:49;98414.44;;;21.46;100.00
9905;BME280;4991;43.566;27.820;2023-06-26T07:00:15;98413.19;;;21.36;100.00
9905;BME280;4991;43.566;27.820;2023-06-26T07:02:45;98412.06;;;21.44;100.00
9905;BME280;4991;43.566;27.820;2023-06-26T07:05:12;98411.38;;;21.58;100.00
9905;BME280;4991;43.566;27.820;2023-06-26T07:07:38;98409.03;;;21.63;100.00
9905;BME280;4991;43.566;27.820;2023-06-26T07:10:07;98399.69;;;21.82;100.00
9905;BME280;4991;43.566;27.820;2023-06-26T07:12:34;98410.03;;;21.89;100.00
9905;BME280;4991;43.566;27.820;2023-06-26T07:15:01;98415.97;;;21.91;100.00
9905;BME280;4991;43.566;27.820;2023-06-26T07:17:28;98414.78;;;21.92;100.00
9905;BME280;4991;43.566;27.820;2023-06-26T07:19:54;98416.84;;;22.02;100.00
9905;BME280;4991;43.566;27.820;2023-06-26T07:22:20;98416.94;;;22.23;100.00
9905;BME280;4991;43.566;27.820;2023-06-26T07:24:46;98417.78;;;22.41;100.00
9905;BME280;4991;43.566;27.820;2023-06-26T07:27:16;98416.31;;;22.61;100.00
9905;BME280;4991;43.566;27.820;2023-06-26T07:29:42;98415.41;;;22.39;100.00
9905;BME280;4991;43.566;27.820;2023-06-26T07:32:08;98407.34;;;22.06;100.00
9905;BME280;4991;43.566;27.820;2023-06-26T07:34:34;98422.41;;;22.05;100.00
9905;BME280;4991;43.566;27.820;2023-06-26T07:37:00;98418.47;;;22.13;100.00
9905;BME280;4991;43.566;27.820;2023-06-26T07:39:26;98424.41;;;22.19;100.00
9905;BME280;4991;43.566;27.820;2023-06-26T07:41:52;98429.22;;;22.29;100.00
9905;BME280;4991;43.566;27.820;2023-06-26T07:44:18;98432.28;;;22.06;100.00
9905;BME280;4991;43.566;27.820;2023-06-26T07:46:43;98423.19;;;22.09;100.00
9905;BME280;4991;43.566;27.820;2023-06-26T07:49:11;98421.63;;;22.12;100.00
9905;BME280;4991;43.566;27.820;2023-06-26T07:51:37;98427.97;;;22.16;100.00
9905;BME280;4991;43.566;27.820;2023-06-26T07:54:03;98430.03;;;22.29;100.00
9905;BME280;4991;43.566;27.820;2023-06-26T07:56:29;98441.91;;;22.26;100.00
9905;BME280;4991;43.566;27.820;2023-06-26T07:58:54;98434.22;;;21.95;100.00
9905;BME280;4991;43.566;27.820;2023-06-26T08:01:20;98427.13;;;22.01;100.00
9905;BME280;4991;43.566;27.820;2023-06-26T08:03:45;98431.63;;;22.34;100.00
9905;BME280;4991;43.566;27.820;2023-06-26T08:06:11;98428.19;;;22.58;100.00
9905;BME280;4991;43.566;27.820;2023-06-26T08:08:37;98439.69;;;22.53;100.00
9905;BME280;4991;43.566;27.820;2023-06-26T08:11:02;98437.19;;;22.34;100.00
9905;BME280;4991;43.566;27.820;2023-06-26T08:13:28;98433.22;;;22.35;100.00
9905;BME280;4991;43.566;27.820;2023-06-26T08:15:54;98433.28;;;22.49;100.00
9905;BME280;4991;43.566;27.820;2023-06-26T08:18:20;98427.00;;;22.59;100.00
9905;BME280;4991;43.566;27.820;2023-06-26T08:20:45;98433.03;;;22.75;100.00
9905;BME280;4991;43.566;27.820;2023-06-26T08:23:11;98431.47;;;22.88;100.00
9905;BME280;4991;43.566;27.820;2023-06-26T08:25:36;98418.78;;;23.05;100.00
9905;BME280;4991;43.566;27.820;2023-06-26T08:28:02;98412.06;;;23.30;100.00
9905;BME280;4991;43.566;27.820;2023-06-26T08:30:28;98412.09;;;23.44;100.00
9905;BME280;4991;43.566;27.820;2023-06-26T08:32:57;98422.38;;;23.23;100.00
9905;BME280;4991;43.566;27.820;2023-06-26T08:35:23;98423.94;;;23.17;100.00
9905;BME280;4991;43.566;27.820;2023-06-26T08:37:49;98415.63;;;23.24;100.00
9905;BME280;4991;43.566;27.820;2023-06-26T08:40:21;98425.97;;;23.30;100.00
9905;BME280;4991;43.566;27.820;2023-06-26T08:42:48;98417.63;;;23.27;100.00
9905;BME280;4991;43.566;27.820;2023-06-26T08:45:18;98420.81;;;23.39;100.00
9905;BME280;4991;43.566;27.820;2023-06-26T08:47:45;98410.47;;;23.40;100.00
9905;BME280;4991;43.566;27.820;2023-06-26T08:50:13;98414.06;;;23.54;100.00
9905;BME280;4991;43.566;27.820;2023-06-26T08:55:26;98414.06;;;23.51;100.00
9905;BME280;4991;43.566;27.820;2023-06-26T08:57:53;98413.25;;;23.64;100.00
9905;BME280;4991;43.566;27.820;2023-06-26T09:00:19;98410.88;;;23.56;100.00
9905;BME280;4991;43.566;27.820;2023-06-26T09:02:45;98406.91;;;23.67;100.00
9905;BME280;4991;43.566;27.820;2023-06-26T09:05:11;98416.81;;;23.72;100.00
9905;BME280;4991;43.566;27.820;2023-06-26T09:07:37;98415.56;;;24.04;100.00
9905;BME280;4991;43.566;27.820;2023-06-26T09:10:03;98411.84;;;24.50;100.00
9905;BME280;4991;43.566;27.820;2023-06-26T09:12:29;98409.47;;;24.41;100.00
9905;BME280;4991;43.566;27.820;2023-06-26T09:14:56;98417.94;;;24.20;100.00
9905;BME280;4991;43.566;27.820;2023-06-26T09:17:29;98411.22;;;24.00;100.00
9905;BME280;4991;43.566;27.820;2023-06-26T09:19:55;98415.19;;;23.85;100.00
9905;BME280;4991;43.566;27.820;2023-06-26T09:22:20;98413.97;;;23.96;100.00
9905;BME280;4991;43.566;27.820;2023-06-26T09:24:48;98413.97;;;24.17;100.00
9905;BME280;4991;43.566;27.820;2023-06-26T09:27:13;98415.41;;;24.50;100.00
9905;BME280;4991;43.566;27.820;2023-06-26T09:29:39;98409.47;;;24.48;100.00
9905;BME280;4991;43.566;27.820;2023-06-26T09:32:08;98422.16;;;24.53;100.00
9905;BME280;4991;43.566;27.820;2023-06-26T09:34:42;98405.97;;;24.23;100.00
9905;BME280;4991;43.566;27.820;2023-06-26T09:37:11;98411.97;;;24.21;100.00
9905;BME280;4991;43.566;27.820;2023-06-26T09:39:37;98404.72;;;24.45;100.00
9905;BME280;4991;43.566;27.820;2023-06-26T09:42:04;98411.38;;;24.65;100.00
9905;BME280;4991;43.566;27.820;2023-06-26T09:44:33;98401.81;;;24.73;100.00
9905;BME280;4991;43.566;27.820;2023-06-26T09:47:01;98405.97;;;25.02;100.00
9905;BME280;4991;43.566;27.820;2023-06-26T09:49:28;98416.66;;;25.66;100.00
9905;BME280;4991;43.566;27.820;2023-06-26T09:51:54;98408.31;;;25.62;100.00
9905;BME280;4991;43.566;27.820;2023-06-26T09:54:22;98409.88;;;25.67;100.00
9905;BME280;4991;43.566;27.820;2023-06-26T09:56:49;98398.66;;;27.31;100.00
9905;BME280;4991;43.566;27.820;2023-06-26T09:59:15;98397.59;;;28.34;100.00
9905;BME280;4991;43.566;27.820;2023-06-26T10:01:43;98400.69;;;29.46;100.00
9905;BME280;4991;43.566;27.820;2023-06-26T10:04:12;98399.50;;;30.37;100.00
9905;BME280;4991;43.566;27.820;2023-06-26T10:06:47;98389.06;;;30.37;100.00
9905;BME280;4991;43.566;27.820;2023-06-26T10:09:17;98387.38;;;30.81;100.00
9905;BME280;4991;43.566;27.820;2023-06-26T10:11:54;98395.34;;;29.20;100.00
9905;BME280;4991;43.566;27.820;2023-06-26T10:14:21;98393.16;;;28.17;100.00
9905;BME280;4991;43.566;27.820;2023-06-26T10:16:49;98393.91;;;27.74;100.00
9905;BME280;4991;43.566;27.820;2023-06-26T10:19:18;98398.97;;;27.10;100.00
9905;BME280;4991;43.566;27.820;2023-06-26T10:21:51;98399.56;;;26.68;100.00
9905;BME280;4991;43.566;27.820;2023-06-26T10:24:19;98398.34;;;26.39;100.00
9905;BME280;4991;43.566;27.820;2023-06-26T10:26:51;98405.97;;;25.98;100.00
9905;BME280;4991;43.566;27.820;2023-06-26T10:29:20;98400.28;;;26.08;100.00
9905;BME280;4991;43.566;27.820;2023-06-26T10:31:50;98395.03;;;26.17;100.00
9905;BME280;4991;43.566;27.820;2023-06-26T10:34:17;98388.53;;;27.14;100.00
9905;BME280;4991;43.566;27.820;2023-06-26T10:36:43;98382.72;;;27.51;100.00
9905;BME280;4991;43.566;27.820;2023-06-26T10:39:09;98384.44;;;28.31;100.00
9905;BME280;4991;43.566;27.820;2023-06-26T10:41:39;98395.44;;;28.22;100.00
9905;BME280;4991;43.566;27.820;2023-06-26T10:47:32;98380.63;;;28.96;100.00
9905;BME280;4991;43.566;27.820;2023-06-26T10:50:22;98389.41;;;28.43;100.00
9905;BME280;4991;43.566;27.820;2023-06-26T10:53:15;98390.50;;;28.68;100.00
9905;BME280;4991;43.566;27.820;2023-06-26T10:56:04;98390.25;;;29.15;100.00
9905;BME280;4991;43.566;27.820;2023-06-26T11:01:23;98378.47;;;28.68;100.00
9905;BME280;4991;43.566;27.820;2023-06-26T11:03:59;98379.00;;;28.43;100.00
9905;BME280;4991;43.566;27.820;2023-06-26T11:06:29;98367.66;;;27.88;100.00
9905;BME280;4991;43.566;27.820;2023-06-26T11:09:07;98374.47;;;27.91;100.00
9905;BME280;4991;43.566;27.820;2023-06-26T11:14:23;98370.19;;;28.25;100.00
9905;BME280;4991;43.566;27.820;2023-06-26T11:16:50;98369.22;;;28.87;100.00
9905;BME280;4991;43.566;27.820;2023-06-26T11:19:17;98364.19;;;28.43;100.00
9905;BME280;4991;43.566;27.820;2023-06-26T11:21:44;98376.06;;;29.70;100.00
9905;BME280;4991;43.566;27.820;2023-06-26T11:24:13;98373.66;;;28.49;100.00
9905;BME280;4991;43.566;27.820;2023-06-26T11:26:40;98366.19;;;29.62;100.00
9905;BME280;4991;43.566;27.820;2023-06-26T11:29:06;98368.38;;;30.44;100.00
9905;BME280;4991;43.566;27.820;2023-06-26T11:31:35;98367.13;;;30.86;100.00
9905;BME280;4991;43.566;27.820;2023-06-26T11:34:05;98363.13;;;30.58;100.00
9905;BME280;4991;43.566;27.820;2023-06-26T11:36:33;98355.34;;;30.37;100.00
9905;BME280;4991;43.566;27.820;2023-06-26T11:39:06;98364.28;;;29.10;100.00
9905;BME280;4991;43.566;27.820;2023-06-26T11:41:34;98373.69;;;27.86;100.00
9905;BME280;4991;43.566;27.820;2023-06-26T11:44:05;98369.06;;;27.34;100.00
9905;BME280;4991;43.566;27.820;2023-06-26T11:46:34;98375.75;;;27.13;100.00
9905;BME280;4991;43.566;27.820;2023-06-26T11:49:04;98372.28;;;27.06;100.00
9905;BME280;4991;43.566;27.820;2023-06-26T11:51:31;98368.50;;;26.93;100.00
9905;BME280;4991;43.566;27.820;2023-06-26T11:54:01;98366.69;;;27.06;100.00
9905;BME280;4991;43.566;27.820;2023-06-26T11:56:28;98376.19;;;27.12;100.00
9905;BME280;4991;43.566;27.820;2023-06-26T12:01:45;98364.06;;;26.95;100.00
9905;BME280;4991;43.566;27.820;2023-06-26T12:04:13;98372.66;;;27.08;100.00
9905;BME280;4991;43.566;27.820;2023-06-26T12:06:45;98371.69;;;27.18;100.00
9905;BME280;4991;43.566;27.820;2023-06-26T12:09:12;98360.66;;;27.57;100.00
9905;BME280;4991;43.566;27.820;2023-06-26T12:11:43;98366.63;;;28.41;100.00
9905;BME280;4991;43.566;27.820;2023-06-26T12:14:10;98368.25;;;28.22;100.00
9905;BME280;4991;43.566;27.820;2023-06-26T12:16:37;98368.78;;;29.08;100.00
9905;BME280;4991;43.566;27.820;2023-06-26T12:19:07;98371.56;;;29.72;100.00
9905;BME280;4991;43.566;27.820;2023-06-26T12:24:02;98360.84;;;30.12;100.00
9905;BME280;4991;43.566;27.820;2023-06-26T12:26:28;98367.78;;;29.47;100.00
9905;BME280;4991;43.566;27.820;2023-06-26T12:29:18;98362.19;;;30.07;100.00
9905;BME280;4991;43.566;27.820;2023-06-26T12:31:45;98355.38;;;30.62;100.00
9905;BME280;4991;43.566;27.820;2023-06-26T12:34:13;98365.28;;;30.54;100.00
9905;BME280;4991;43.566;27.820;2023-06-26T12:36:48;98373.00;;;30.38;100.00
9905;BME280;4991;43.566;27.820;2023-06-26T12:39:19;98369.13;;;30.03;100.00
9905;BME280;4991;43.566;27.820;2023-06-26T12:41:54;98364.97;;;30.23;100.00
9905;BME280;4991;43.566;27.820;2023-06-26T12:44:29;98368.78;;;31.59;100.00
9905;BME280;4991;43.566;27.820;2023-06-26T12:47:02;98365.00;;;33.04;100.00
9905;BME280;4991;43.566;27.820;2023-06-26T12:52:04;98368.56;;;34.11;100.00
9905;BME280;4991;43.566;27.820;2023-06-26T12:54:30;98381.06;;;32.63;100.00
9905;BME280;4991;43.566;27.820;2023-06-26T12:56:57;98366.25;;;32.72;100.00
9905;BME280;4991;43.566;27.820;2023-06-26T12:59:23;98364.75;;;31.94;100.00
9905;BME280;4991;43.566;27.820;2023-06-26T13:01:50;98367.22;;;31.20;100.00
9905;BME280;4991;43.566;27.820;2023-06-26T13:04:16;98371.53;;;30.46;100.00
9905;BME280;4991;43.566;27.820;2023-06-26T13:06:42;98376.28;;;29.75;100.00
9905;BME280;4991;43.566;27.820;2023-06-26T13:09:08;98375.69;;;29.52;100.00
9905;BME280;4991;43.566;27.820;2023-06-26T13:11:35;98380.09;;;29.37;100.00
9905;BME280;4991;43.566;27.820;2023-06-26T13:14:01;98381.41;;;29.48;100.00
9905;BME280;4991;43.566;27.820;2023-06-26T13:16:27;98372.63;;;29.46;100.00
9905;BME280;4991;43.566;27.820;2023-06-26T13:18:53;98377.91;;;29.28;100.00
9905;BME280;4991;43.566;27.820;2023-06-26T13:21:19;98378.59;;;29.32;100.00
9905;BME280;4991;43.566;27.820;2023-06-26T13:23:45;98372.72;;;29.43;100.00
9905;BME280;4991;43.566;27.820;2023-06-26T13:26:10;98368.69;;;29.76;100.00